sensor_id;sensor_type;location;lat;lon;timestamp;P1;durP1;ratioP1;P2;durP2;ratioP2
54177;SDS011;40085;53.004;6.770;2022-07-23T00:01:28;5.15;;;1.13;;
54177;SDS011;40085;53.004;6.770;2022-07-23T00:03:54;1.63;;;1.10;;
54177;SDS011;40085;53.004;6.770;2022-07-23T00:06:20;1.77;;;1.10;;
54177;SDS011;40085;53.004;6.770;2022-07-23T00:08:46;2.25;;;1.02;;
54177;SDS011;40085;53.004;6.770;2022-07-23T00:11:12;1.75;;;1.27;;
54177;SDS011;40085;53.004;6.770;2022-07-23T00:13:38;2.50;;;1.40;;
54177;SDS011;40085;53.004;6.770;2022-07-23T00:16:04;1.80;;;1.23;;
54177;SDS011;40085;53.004;6.770;2022-07-23T00:18:30;1.88;;;1.05;;
54177;SDS011;40085;53.004;6.770;2022-07-23T00:20:56;3.40;;;1.40;;
54177;SDS011;40085;53.004;6.770;2022-07-23T00:23:22;1.67;;;1.20;;
54177;SDS011;40085;53.004;6.770;2022-07-23T00:25:49;7.55;;;1.30;;
54177;SDS011;40085;53.004;6.770;2022-07-23T00:28:16;2.42;;;1.10;;
54177;SDS011;40085;53.004;6.770;2022-07-23T00:30:43;1.05;;;0.80;;
54177;SDS011;40085;53.004;6.770;2022-07-23T00:33:09;1.92;;;1.30;;
54177;SDS011;40085;53.004;6.770;2022-07-23T00:35:37;1.83;;;1.25;;
54177;SDS011;40085;53.004;6.770;2022-07-23T00:38:06;5.15;;;1.38;;
54177;SDS011;40085;53.004;6.770;2022-07-23T00:40:33;2.47;;;1.35;;
54177;SDS011;40085;53.004;6.770;2022-07-23T00:42:59;4.43;;;1.30;;
54177;SDS011;40085;53.004;6.770;2022-07-23T00:45:25;2.08;;;1.17;;
54177;SDS011;40085;53.004;6.770;2022-07-23T00:47:51;1.35;;;1.15;;
54177;SDS011;40085;53.004;6.770;2022-07-23T00:50:17;1.67;;;1.13;;
54177;SDS011;40085;53.004;6.770;2022-07-23T00:52:43;1.17;;;0.80;;
54177;SDS011;40085;53.004;6.770;2022-07-23T00:55:13;3.67;;;1.40;;
54177;SDS011;40085;53.004;6.770;2022-07-23T00:57:39;2.45;;;1.60;;
54177;SDS011;40085;53.004;6.770;2022-07-23T01:00:07;2.42;;;1.63;;
54177;SDS011;40085;53.004;6.770;2022-07-23T01:02:35;1.83;;;1.17;;
54177;SDS011;40085;53.004;6.770;2022-07-23T01:05:01;1.50;;;1.05;;
54177;SDS011;40085;53.004;6.770;2022-07-23T01:07:31;2.58;;;1.48;;
54177;SDS011;40085;53.004;6.770;2022-07-23T01:09:56;3.83;;;1.67;;
54177;SDS011;40085;53.004;6.770;2022-07-23T01:12:23;3.08;;;1.55;;
54177;SDS011;40085;53.004;6.770;2022-07-23T01:14:55;2.13;;;1.30;;
54177;SDS011;40085;53.004;6.770;2022-07-23T01:17:22;2.20;;;1.30;;
54177;SDS011;40085;53.004;6.770;2022-07-23T01:19:48;1.35;;;0.95;;
54177;SDS011;40085;53.004;6.770;2022-07-23T01:22:14;1.50;;;1.00;;
54177;SDS011;40085;53.004;6.770;2022-07-23T01:24:41;2.47;;;1.40;;
54177;SDS011;40085;53.004;6.770;2022-07-23T01:27:07;2.00;;;1.08;;
54177;SDS011;40085;53.004;6.770;2022-07-23T01:29:33;1.65;;;1.25;;
54177;SDS011;40085;53.004;6.770;2022-07-23T01:31:58;4.65;;;1.27;;
54177;SDS011;40085;53.004;6.770;2022-07-23T01:34:24;3.80;;;1.38;;
54177;SDS011;40085;53.004;6.770;2022-07-23T01:36:50;1.95;;;1.17;;
54177;SDS011;40085;53.004;6.770;2022-07-23T01:39:15;2.72;;;1.55;;
54177;SDS011;40085;53.004;6.770;2022-07-23T01:41:41;3.15;;;1.33;;
54177;SDS011;40085;53.004;6.770;2022-07-23T01:44:06;2.45;;;1.73;;
54177;SDS011;40085;53.004;6.770;2022-07-23T01:46:32;1.92;;;1.33;;
54177;SDS011;40085;53.004;6.770;2022-07-23T01:48:58;2.13;;;1.30;;
54177;SDS011;40085;53.004;6.770;2022-07-23T01:51:24;1.88;;;1.40;;
54177;SDS011;40085;53.004;6.770;2022-07-23T01:53:49;4.95;;;1.70;;
54177;SDS011;40085;53.004;6.770;2022-07-23T01:56:15;3.03;;;1.40;;
54177;SDS011;40085;53.004;6.770;2022-07-23T01:58:41;1.50;;;1.27;;
54177;SDS011;40085;53.004;6.770;2022-07-23T02:01:07;2.38;;;1.45;;
54177;SDS011;40085;53.004;6.770;2022-07-23T02:03:32;3.05;;;1.55;;
54177;SDS011;40085;53.004;6.770;2022-07-23T02:05:58;5.93;;;1.58;;
54177;SDS011;40085;53.004;6.770;2022-07-23T02:08:24;1.58;;;1.35;;
54177;SDS011;40085;53.004;6.770;2022-07-23T02:10:49;1.45;;;0.90;;
54177;SDS011;40085;53.004;6.770;2022-07-23T02:13:16;2.38;;;1.48;;
54177;SDS011;40085;53.004;6.770;2022-07-23T02:15:42;2.53;;;1.63;;
54177;SDS011;40085;53.004;6.770;2022-07-23T02:18:08;3.13;;;1.70;;
54177;SDS011;40085;53.004;6.770;2022-07-23T02:20:33;2.53;;;1.40;;
54177;SDS011;40085;53.004;6.770;2022-07-23T02:22:59;3.80;;;1.85;;
54177;SDS011;40085;53.004;6.770;2022-07-23T02:25:25;2.95;;;1.65;;
54177;SDS011;40085;53.004;6.770;2022-07-23T02:27:50;2.88;;;1.63;;
54177;SDS011;40085;53.004;6.770;2022-07-23T02:30:16;3.72;;;1.30;;
54177;SDS011;40085;53.004;6.770;2022-07-23T02:32:42;2.22;;;1.20;;
54177;SDS011;40085;53.004;6.770;2022-07-23T02:35:07;3.05;;;1.60;;
54177;SDS011;40085;53.004;6.770;2022-07-23T02:37:33;3.33;;;1.50;;
54177;SDS011;40085;53.004;6.770;2022-07-23T02:39:59;2.58;;;1.50;;
54177;SDS011;40085;53.004;6.770;2022-07-23T02:42:25;1.33;;;1.00;;
54177;SDS011;40085;53.004;6.770;2022-07-23T02:44:51;3.85;;;1.98;;
54177;SDS011;40085;53.004;6.770;2022-07-23T02:47:16;3.08;;;1.70;;
54177;SDS011;40085;53.004;6.770;2022-07-23T02:49:42;3.00;;;1.60;;
54177;SDS011;40085;53.004;6.770;2022-07-23T02:52:08;3.03;;;1.73;;
54177;SDS011;40085;53.004;6.770;2022-07-23T02:54:35;1.92;;;1.52;;
54177;SDS011;40085;53.004;6.770;2022-07-23T02:57:01;3.30;;;1.60;;
54177;SDS011;40085;53.004;6.770;2022-07-23T02:59:27;1.45;;;1.20;;
54177;SDS011;40085;53.004;6.770;2022-07-23T03:01:53;2.30;;;1.50;;
54177;SDS011;40085;53.004;6.770;2022-07-23T03:04:21;2.17;;;1.50;;
54177;SDS011;40085;53.004;6.770;2022-07-23T03:06:47;1.98;;;1.42;;
54177;SDS011;40085;53.004;6.770;2022-07-23T03:09:12;2.95;;;1.75;;
54177;SDS011;40085;53.004;6.770;2022-07-23T03:11:38;1.52;;;1.20;;
54177;SDS011;40085;53.004;6.770;2022-07-23T03:14:04;2.58;;;1.30;;
54177;SDS011;40085;53.004;6.770;2022-07-23T03:16:30;2.38;;;1.45;;
54177;SDS011;40085;53.004;6.770;2022-07-23T03:18:56;2.47;;;1.40;;
54177;SDS011;40085;53.004;6.770;2022-07-23T03:21:22;1.92;;;1.20;;
54177;SDS011;40085;53.004;6.770;2022-07-23T03:23:47;3.25;;;1.98;;
54177;SDS011;40085;53.004;6.770;2022-07-23T03:26:13;2.80;;;1.55;;
54177;SDS011;40085;53.004;6.770;2022-07-23T03:28:39;2.60;;;1.40;;
54177;SDS011;40085;53.004;6.770;2022-07-23T03:31:04;3.55;;;1.52;;
54177;SDS011;40085;53.004;6.770;2022-07-23T03:33:30;2.20;;;1.50;;
54177;SDS011;40085;53.004;6.770;2022-07-23T03:35:56;4.45;;;1.70;;
54177;SDS011;40085;53.004;6.770;2022-07-23T03:38:21;2.80;;;1.73;;
54177;SDS011;40085;53.004;6.770;2022-07-23T03:40:47;2.30;;;1.58;;
54177;SDS011;40085;53.004;6.770;2022-07-23T03:43:13;2.80;;;1.35;;
54177;SDS011;40085;53.004;6.770;2022-07-23T03:45:38;2.92;;;1.60;;
54177;SDS011;40085;53.004;6.770;2022-07-23T03:48:04;3.10;;;1.83;;
54177;SDS011;40085;53.004;6.770;2022-07-23T03:50:30;2.03;;;1.42;;
54177;SDS011;40085;53.004;6.770;2022-07-23T03:52:56;3.45;;;1.75;;
54177;SDS011;40085;53.004;6.770;2022-07-23T03:55:21;4.10;;;1.95;;
54177;SDS011;40085;53.004;6.770;2022-07-23T03:57:47;2.33;;;1.88;;
54177;SDS011;40085;53.004;6.770;2022-07-23T04:00:13;3.13;;;1.63;;
54177;SDS011;40085;53.004;6.770;2022-07-23T04:02:39;2.55;;;1.95;;
54177;SDS011;40085;53.004;6.770;2022-07-23T04:05:05;4.38;;;1.92;;
54177;SDS011;40085;53.004;6.770;2022-07-23T04:07:32;4.82;;;1.92;;
54177;SDS011;40085;53.004;6.770;2022-07-23T04:09:57;3.17;;;1.90;;
54177;SDS011;40085;53.004;6.770;2022-07-23T04:12:23;3.00;;;1.80;;
54177;SDS011;40085;53.004;6.770;2022-07-23T04:14:49;6.10;;;2.22;;
54177;SDS011;40085;53.004;6.770;2022-07-23T04:17:15;2.35;;;1.75;;
54177;SDS011;40085;53.004;6.770;2022-07-23T04:19:41;2.75;;;1.83;;
54177;SDS011;40085;53.004;6.770;2022-07-23T04:22:09;2.95;;;1.70;;
54177;SDS011;40085;53.004;6.770;2022-07-23T04:24:35;2.22;;;1.50;;
54177;SDS011;40085;53.004;6.770;2022-07-23T04:27:01;2.13;;;1.40;;
54177;SDS011;40085;53.004;6.770;2022-07-23T04:29:27;2.45;;;1.63;;
54177;SDS011;40085;53.004;6.770;2022-07-23T04:31:53;5.65;;;2.20;;
54177;SDS011;40085;53.004;6.770;2022-07-23T04:34:18;2.47;;;1.73;;
54177;SDS011;40085;53.004;6.770;2022-07-23T04:36:44;2.85;;;1.50;;
54177;SDS011;40085;53.004;6.770;2022-07-23T04:39:10;3.55;;;1.70;;
54177;SDS011;40085;53.004;6.770;2022-07-23T04:41:36;2.75;;;1.80;;
54177;SDS011;40085;53.004;6.770;2022-07-23T04:44:02;2.33;;;1.52;;
54177;SDS011;40085;53.004;6.770;2022-07-23T04:46:28;3.65;;;1.90;;
54177;SDS011;40085;53.004;6.770;2022-07-23T04:48:54;4.03;;;1.67;;
54177;SDS011;40085;53.004;6.770;2022-07-23T04:51:20;2.10;;;1.55;;
54177;SDS011;40085;53.004;6.770;2022-07-23T04:53:45;2.97;;;1.73;;
54177;SDS011;40085;53.004;6.770;2022-07-23T04:56:11;4.68;;;1.55;;
54177;SDS011;40085;53.004;6.770;2022-07-23T04:58:37;6.43;;;1.88;;
54177;SDS011;40085;53.004;6.770;2022-07-23T05:01:03;1.90;;;1.27;;
54177;SDS011;40085;53.004;6.770;2022-07-23T05:03:28;3.38;;;1.52;;
54177;SDS011;40085;53.004;6.770;2022-07-23T05:05:54;1.90;;;1.33;;
54177;SDS011;40085;53.004;6.770;2022-07-23T05:08:20;2.88;;;1.83;;
54177;SDS011;40085;53.004;6.770;2022-07-23T05:10:46;3.13;;;1.48;;
54177;SDS011;40085;53.004;6.770;2022-07-23T05:13:11;2.28;;;1.63;;
54177;SDS011;40085;53.004;6.770;2022-07-23T05:15:39;2.47;;;1.45;;
54177;SDS011;40085;53.004;6.770;2022-07-23T05:18:05;2.05;;;1.52;;
54177;SDS011;40085;53.004;6.770;2022-07-23T05:20:34;3.75;;;1.85;;
54177;SDS011;40085;53.004;6.770;2022-07-23T05:23:00;3.97;;;1.83;;
54177;SDS011;40085;53.004;6.770;2022-07-23T05:25:25;4.20;;;1.85;;
54177;SDS011;40085;53.004;6.770;2022-07-23T05:27:51;3.13;;;1.67;;
54177;SDS011;40085;53.004;6.770;2022-07-23T05:30:17;3.30;;;1.75;;
54177;SDS011;40085;53.004;6.770;2022-07-23T05:32:43;2.67;;;1.70;;
54177;SDS011;40085;53.004;6.770;2022-07-23T05:35:09;2.38;;;1.23;;
54177;SDS011;40085;53.004;6.770;2022-07-23T05:37:35;2.83;;;1.58;;
54177;SDS011;40085;53.004;6.770;2022-07-23T05:40:04;3.45;;;1.85;;
54177;SDS011;40085;53.004;6.770;2022-07-23T05:42:33;4.55;;;1.52;;
54177;SDS011;40085;53.004;6.770;2022-07-23T05:45:02;2.65;;;1.52;;
54177;SDS011;40085;53.004;6.770;2022-07-23T05:47:28;3.03;;;2.00;;
54177;SDS011;40085;53.004;6.770;2022-07-23T05:50:04;2.63;;;1.70;;
54177;SDS011;40085;53.004;6.770;2022-07-23T05:52:29;2.60;;;1.73;;
54177;SDS011;40085;53.004;6.770;2022-07-23T05:54:55;3.60;;;1.30;;
54177;SDS011;40085;53.004;6.770;2022-07-23T05:57:21;2.88;;;1.80;;
54177;SDS011;40085;53.004;6.770;2022-07-23T05:59:46;4.10;;;1.67;;
54177;SDS011;40085;53.004;6.770;2022-07-23T06:02:12;2.28;;;1.33;;
54177;SDS011;40085;53.004;6.770;2022-07-23T06:04:38;4.90;;;1.55;;
54177;SDS011;40085;53.004;6.770;2022-07-23T06:07:03;3.20;;;1.67;;
54177;SDS011;40085;53.004;6.770;2022-07-23T06:09:29;2.80;;;1.30;;
54177;SDS011;40085;53.004;6.770;2022-07-23T06:11:55;6.00;;;1.35;;
54177;SDS011;40085;53.004;6.770;2022-07-23T06:14:20;2.45;;;1.10;;
54177;SDS011;40085;53.004;6.770;2022-07-23T06:16:46;1.63;;;1.20;;
54177;SDS011;40085;53.004;6.770;2022-07-23T06:19:12;3.00;;;1.40;;
54177;SDS011;40085;53.004;6.770;2022-07-23T06:21:37;2.17;;;1.25;;
54177;SDS011;40085;53.004;6.770;2022-07-23T06:24:03;2.00;;;1.20;;
54177;SDS011;40085;53.004;6.770;2022-07-23T06:26:29;1.48;;;1.15;;
54177;SDS011;40085;53.004;6.770;2022-07-23T06:28:54;0.93;;;0.85;;
54177;SDS011;40085;53.004;6.770;2022-07-23T06:31:20;2.53;;;1.08;;
54177;SDS011;40085;53.004;6.770;2022-07-23T06:33:46;1.42;;;0.90;;
54177;SDS011;40085;53.004;6.770;2022-07-23T06:36:12;1.52;;;0.63;;
54177;SDS011;40085;53.004;6.770;2022-07-23T06:38:37;2.05;;;1.00;;
54177;SDS011;40085;53.004;6.770;2022-07-23T06:41:03;2.42;;;1.08;;
54177;SDS011;40085;53.004;6.770;2022-07-23T06:43:30;1.27;;;0.80;;
54177;SDS011;40085;53.004;6.770;2022-07-23T06:45:56;2.50;;;0.80;;
54177;SDS011;40085;53.004;6.770;2022-07-23T06:48:21;0.60;;;0.60;;
54177;SDS011;40085;53.004;6.770;2022-07-23T06:50:47;0.60;;;0.60;;
54177;SDS011;40085;53.004;6.770;2022-07-23T06:53:13;1.10;;;0.65;;
54177;SDS011;40085;53.004;6.770;2022-07-23T06:55:39;0.82;;;0.70;;
54177;SDS011;40085;53.004;6.770;2022-07-23T06:58:05;0.88;;;0.60;;
54177;SDS011;40085;53.004;6.770;2022-07-23T07:00:31;0.60;;;0.50;;
54177;SDS011;40085;53.004;6.770;2022-07-23T07:02:57;1.23;;;0.57;;
54177;SDS011;40085;53.004;6.770;2022-07-23T07:05:23;0.55;;;0.50;;
54177;SDS011;40085;53.004;6.770;2022-07-23T07:07:50;0.50;;;0.47;;
54177;SDS011;40085;53.004;6.770;2022-07-23T07:10:16;3.20;;;0.60;;
54177;SDS011;40085;53.004;6.770;2022-07-23T07:12:42;0.73;;;0.40;;
54177;SDS011;40085;53.004;6.770;2022-07-23T07:15:08;0.88;;;0.52;;
54177;SDS011;40085;53.004;6.770;2022-07-23T07:17:34;3.67;;;0.52;;
54177;SDS011;40085;53.004;6.770;2022-07-23T07:19:59;0.43;;;0.43;;
54177;SDS011;40085;53.004;6.770;2022-07-23T07:22:25;0.40;;;0.40;;
54177;SDS011;40085;53.004;6.770;2022-07-23T07:24:51;1.08;;;0.50;;
54177;SDS011;40085;53.004;6.770;2022-07-23T07:27:16;3.05;;;0.63;;
54177;SDS011;40085;53.004;6.770;2022-07-23T07:29:42;1.38;;;0.70;;
54177;SDS011;40085;53.004;6.770;2022-07-23T07:32:08;0.47;;;0.30;;
54177;SDS011;40085;53.004;6.770;2022-07-23T07:34:34;0.43;;;0.35;;
54177;SDS011;40085;53.004;6.770;2022-07-23T07:36:59;0.47;;;0.47;;
54177;SDS011;40085;53.004;6.770;2022-07-23T07:39:25;0.75;;;0.60;;
54177;SDS011;40085;53.004;6.770;2022-07-23T07:41:51;0.55;;;0.55;;
54177;SDS011;40085;53.004;6.770;2022-07-23T07:44:16;0.70;;;0.40;;
54177;SDS011;40085;53.004;6.770;2022-07-23T07:46:42;0.30;;;0.30;;
54177;SDS011;40085;53.004;6.770;2022-07-23T07:49:08;1.33;;;0.40;;
54177;SDS011;40085;53.004;6.770;2022-07-23T07:51:34;0.63;;;0.40;;
54177;SDS011;40085;53.004;6.770;2022-07-23T07:54:00;0.30;;;0.30;;
54177;SDS011;40085;53.004;6.770;2022-07-23T07:56:26;0.43;;;0.40;;
54177;SDS011;40085;53.004;6.770;2022-07-23T07:58:52;0.65;;;0.40;;
54177;SDS011;40085;53.004;6.770;2022-07-23T08:01:18;0.30;;;0.30;;
54177;SDS011;40085;53.004;6.770;2022-07-23T08:03:45;0.68;;;0.40;;
54177;SDS011;40085;53.004;6.770;2022-07-23T08:06:11;0.50;;;0.50;;
54177;SDS011;40085;53.004;6.770;2022-07-23T08:08:36;0.40;;;0.40;;
54177;SDS011;40085;53.004;6.770;2022-07-23T08:11:02;1.13;;;0.50;;
54177;SDS011;40085;53.004;6.770;2022-07-23T08:13:28;0.52;;;0.30;;
54177;SDS011;40085;53.004;6.770;2022-07-23T08:15:53;0.77;;;0.50;;
54177;SDS011;40085;53.004;6.770;2022-07-23T08:18:19;0.30;;;0.30;;
54177;SDS011;40085;53.004;6.770;2022-07-23T08:20:45;0.60;;;0.50;;
54177;SDS011;40085;53.004;6.770;2022-07-23T08:23:11;0.40;;;0.40;;
54177;SDS011;40085;53.004;6.770;2022-07-23T08:25:37;0.52;;;0.47;;
54177;SDS011;40085;53.004;6.770;2022-07-23T08:28:06;0.30;;;0.30;;
54177;SDS011;40085;53.004;6.770;2022-07-23T08:30:34;0.77;;;0.50;;
54177;SDS011;40085;53.004;6.770;2022-07-23T08:33:02;0.32;;;0.28;;
54177;SDS011;40085;53.004;6.770;2022-07-23T08:35:40;0.60;;;0.47;;
54177;SDS011;40085;53.004;6.770;2022-07-23T08:38:08;0.20;;;0.20;;
54177;SDS011;40085;53.004;6.770;2022-07-23T08:40:39;0.20;;;0.20;;
54177;SDS011;40085;53.004;6.770;2022-07-23T08:43:07;0.60;;;0.40;;
54177;SDS011;40085;53.004;6.770;2022-07-23T08:45:38;0.30;;;0.25;;
54177;SDS011;40085;53.004;6.770;2022-07-23T08:48:12;0.30;;;0.30;;
54177;SDS011;40085;53.004;6.770;2022-07-23T08:50:45;0.20;;;0.20;;
54177;SDS011;40085;53.004;6.770;2022-07-23T08:53:14;0.55;;;0.43;;
54177;SDS011;40085;53.004;6.770;2022-07-23T08:55:45;0.20;;;0.20;;
54177;SDS011;40085;53.004;6.770;2022-07-23T08:58:12;0.22;;;0.20;;
54177;SDS011;40085;53.004;6.770;2022-07-23T09:00:38;1.13;;;0.30;;
54177;SDS011;40085;53.004;6.770;2022-07-23T09:03:03;0.30;;;0.30;;
54177;SDS011;40085;53.004;6.770;2022-07-23T09:05:29;0.30;;;0.30;;
54177;SDS011;40085;53.004;6.770;2022-07-23T09:08:03;0.20;;;0.20;;
54177;SDS011;40085;53.004;6.770;2022-07-23T09:10:28;0.30;;;0.30;;
54177;SDS011;40085;53.004;6.770;2022-07-23T09:12:54;1.27;;;0.40;;
54177;SDS011;40085;53.004;6.770;2022-07-23T09:15:20;0.28;;;0.20;;
54177;SDS011;40085;53.004;6.770;2022-07-23T09:17:45;1.20;;;0.40;;
54177;SDS011;40085;53.004;6.770;2022-07-23T09:20:15;0.65;;;0.25;;
54177;SDS011;40085;53.004;6.770;2022-07-23T09:22:45;0.60;;;0.40;;
54177;SDS011;40085;53.004;6.770;2022-07-23T09:25:16;0.52;;;0.20;;
54177;SDS011;40085;53.004;6.770;2022-07-23T09:27:48;0.28;;;0.28;;
54177;SDS011;40085;53.004;6.770;2022-07-23T09:30:17;0.68;;;0.30;;
54177;SDS011;40085;53.004;6.770;2022-07-23T09:32:43;0.95;;;0.40;;
54177;SDS011;40085;53.004;6.770;2022-07-23T09:35:09;0.22;;;0.10;;
54177;SDS011;40085;53.004;6.770;2022-07-23T09:37:35;0.10;;;0.10;;
54177;SDS011;40085;53.004;6.770;2022-07-23T09:40:08;0.75;;;0.50;;
54177;SDS011;40085;53.004;6.770;2022-07-23T09:42:36;0.28;;;0.22;;
54177;SDS011;40085;53.004;6.770;2022-07-23T09:45:02;0.28;;;0.20;;
54177;SDS011;40085;53.004;6.770;2022-07-23T09:47:30;1.23;;;0.30;;
54177;SDS011;40085;53.004;6.770;2022-07-23T09:50:19;0.60;;;0.30;;
54177;SDS011;40085;53.004;6.770;2022-07-23T09:52:45;0.52;;;0.28;;
54177;SDS011;40085;53.004;6.770;2022-07-23T09:55:14;0.52;;;0.30;;
54177;SDS011;40085;53.004;6.770;2022-07-23T09:57:41;0.32;;;0.30;;
54177;SDS011;40085;53.004;6.770;2022-07-23T10:00:10;0.20;;;0.20;;
54177;SDS011;40085;53.004;6.770;2022-07-23T10:02:39;0.63;;;0.38;;
54177;SDS011;40085;53.004;6.770;2022-07-23T10:05:05;0.38;;;0.30;;
54177;SDS011;40085;53.004;6.770;2022-07-23T10:07:32;0.20;;;0.20;;
54177;SDS011;40085;53.004;6.770;2022-07-23T10:10:02;1.75;;;0.20;;
54177;SDS011;40085;53.004;6.770;2022-07-23T10:12:29;0.30;;;0.30;;
54177;SDS011;40085;53.004;6.770;2022-07-23T10:15:00;2.38;;;0.40;;
54177;SDS011;40085;53.004;6.770;2022-07-23T10:17:29;0.30;;;0.30;;
54177;SDS011;40085;53.004;6.770;2022-07-23T10:19:55;0.25;;;0.25;;
54177;SDS011;40085;53.004;6.770;2022-07-23T10:22:28;0.82;;;0.47;;
54177;SDS011;40085;53.004;6.770;2022-07-23T10:30:22;0.65;;;0.40;;
54177;SDS011;40085;53.004;6.770;2022-07-23T10:36:18;0.35;;;0.35;;
54177;SDS011;40085;53.004;6.770;2022-07-23T10:39:11;0.22;;;0.22;;
54177;SDS011;40085;53.004;6.770;2022-07-23T10:41:42;0.65;;;0.47;;
54177;SDS011;40085;53.004;6.770;2022-07-23T10:44:09;0.80;;;0.40;;
54177;SDS011;40085;53.004;6.770;2022-07-23T10:49:42;0.68;;;0.22;;
54177;SDS011;40085;53.004;6.770;2022-07-23T10:54:43;0.30;;;0.20;;
54177;SDS011;40085;53.004;6.770;2022-07-23T10:57:19;0.32;;;0.30;;
54177;SDS011;40085;53.004;6.770;2022-07-23T11:02:34;0.25;;;0.25;;
54177;SDS011;40085;53.004;6.770;2022-07-23T11:05:04;1.85;;;0.47;;
54177;SDS011;40085;53.004;6.770;2022-07-23T11:07:36;1.90;;;0.50;;
54177;SDS011;40085;53.004;6.770;2022-07-23T11:10:32;0.85;;;0.40;;
54177;SDS011;40085;53.004;6.770;2022-07-23T11:19:15;2.75;;;0.43;;
54177;SDS011;40085;53.004;6.770;2022-07-23T11:34:55;0.40;;;0.40;;
54177;SDS011;40085;53.004;6.770;2022-07-23T11:37:35;1.35;;;0.63;;
54177;SDS011;40085;53.004;6.770;2022-07-23T11:40:04;0.82;;;0.50;;
54177;SDS011;40085;53.004;6.770;2022-07-23T11:42:33;0.65;;;0.47;;
54177;SDS011;40085;53.004;6.770;2022-07-23T11:45:00;1.63;;;0.60;;
54177;SDS011;40085;53.004;6.770;2022-07-23T11:47:26;0.43;;;0.43;;
54177;SDS011;40085;53.004;6.770;2022-07-23T11:49:53;1.70;;;0.68;;
54177;SDS011;40085;53.004;6.770;2022-07-23T11:54:53;1.63;;;0.65;;
54177;SDS011;40085;53.004;6.770;2022-07-23T11:57:25;0.50;;;0.50;;
54177;SDS011;40085;53.004;6.770;2022-07-23T11:59:55;0.70;;;0.47;;
54177;SDS011;40085;53.004;6.770;2022-07-23T12:02:22;0.70;;;0.50;;
54177;SDS011;40085;53.004;6.770;2022-07-23T12:04:49;0.60;;;0.45;;
54177;SDS011;40085;53.004;6.770;2022-07-23T12:09:51;0.57;;;0.30;;
54177;SDS011;40085;53.004;6.770;2022-07-23T12:12:17;0.90;;;0.57;;
54177;SDS011;40085;53.004;6.770;2022-07-23T12:14:50;1.05;;;0.60;;
54177;SDS011;40085;53.004;6.770;2022-07-23T12:17:18;1.00;;;0.60;;
54177;SDS011;40085;53.004;6.770;2022-07-23T12:19:45;0.38;;;0.38;;
54177;SDS011;40085;53.004;6.770;2022-07-23T12:22:11;0.50;;;0.40;;
54177;SDS011;40085;53.004;6.770;2022-07-23T12:24:55;1.58;;;0.47;;
54177;SDS011;40085;53.004;6.770;2022-07-23T12:27:22;0.82;;;0.50;;
54177;SDS011;40085;53.004;6.770;2022-07-23T12:29:49;0.85;;;0.60;;
54177;SDS011;40085;53.004;6.770;2022-07-23T12:32:23;1.67;;;0.60;;
54177;SDS011;40085;53.004;6.770;2022-07-23T12:35:03;0.80;;;0.60;;
54177;SDS011;40085;53.004;6.770;2022-07-23T12:37:37;0.98;;;0.60;;
54177;SDS011;40085;53.004;6.770;2022-07-23T12:42:49;2.05;;;0.80;;
54177;SDS011;40085;53.004;6.770;2022-07-23T12:45:27;1.02;;;0.65;;
54177;SDS011;40085;53.004;6.770;2022-07-23T12:48:06;0.55;;;0.40;;
54177;SDS011;40085;53.004;6.770;2022-07-23T12:53:16;0.82;;;0.70;;
54177;SDS011;40085;53.004;6.770;2022-07-23T12:56:00;1.00;;;0.60;;
54177;SDS011;40085;53.004;6.770;2022-07-23T12:58:39;1.30;;;0.77;;
54177;SDS011;40085;53.004;6.770;2022-07-23T13:01:05;0.75;;;0.32;;
54177;SDS011;40085;53.004;6.770;2022-07-23T13:03:37;1.23;;;0.60;;
54177;SDS011;40085;53.004;6.770;2022-07-23T13:06:03;1.00;;;0.60;;
54177;SDS011;40085;53.004;6.770;2022-07-23T13:08:32;0.70;;;0.40;;
54177;SDS011;40085;53.004;6.770;2022-07-23T13:11:00;0.88;;;0.50;;
54177;SDS011;40085;53.004;6.770;2022-07-23T13:13:27;1.55;;;0.60;;
54177;SDS011;40085;53.004;6.770;2022-07-23T13:15:58;0.65;;;0.50;;
54177;SDS011;40085;53.004;6.770;2022-07-23T13:18:27;0.85;;;0.68;;
54177;SDS011;40085;53.004;6.770;2022-07-23T13:20:53;0.73;;;0.70;;
54177;SDS011;40085;53.004;6.770;2022-07-23T13:23:19;0.60;;;0.50;;
54177;SDS011;40085;53.004;6.770;2022-07-23T13:25:46;1.30;;;0.68;;
54177;SDS011;40085;53.004;6.770;2022-07-23T13:28:12;2.42;;;0.65;;
54177;SDS011;40085;53.004;6.770;2022-07-23T13:30:39;1.75;;;0.50;;
54177;SDS011;40085;53.004;6.770;2022-07-23T13:33:05;1.05;;;0.65;;
54177;SDS011;40085;53.004;6.770;2022-07-23T13:35:34;2.50;;;0.75;;
54177;SDS011;40085;53.004;6.770;2022-07-23T13:38:01;0.98;;;0.70;;
54177;SDS011;40085;53.004;6.770;2022-07-23T13:40:28;0.63;;;0.55;;
54177;SDS011;40085;53.004;6.770;2022-07-23T13:42:54;1.60;;;0.60;;
54177;SDS011;40085;53.004;6.770;2022-07-23T13:45:20;0.77;;;0.50;;
54177;SDS011;40085;53.004;6.770;2022-07-23T13:47:46;1.77;;;0.98;;
54177;SDS011;40085;53.004;6.770;2022-07-23T13:50:12;1.67;;;0.50;;
54177;SDS011;40085;53.004;6.770;2022-07-23T13:52:37;0.80;;;0.52;;
54177;SDS011;40085;53.004;6.770;2022-07-23T13:55:04;1.20;;;0.60;;
54177;SDS011;40085;53.004;6.770;2022-07-23T13:57:31;1.48;;;0.52;;
54177;SDS011;40085;53.004;6.770;2022-07-23T13:59:57;1.67;;;0.57;;
54177;SDS011;40085;53.004;6.770;2022-07-23T14:02:23;0.98;;;0.45;;
54177;SDS011;40085;53.004;6.770;2022-07-23T14:04:49;1.00;;;0.50;;
54177;SDS011;40085;53.004;6.770;2022-07-23T14:07:15;1.00;;;0.50;;
54177;SDS011;40085;53.004;6.770;2022-07-23T14:09:41;0.47;;;0.43;;
54177;SDS011;40085;53.004;6.770;2022-07-23T14:12:07;3.50;;;0.77;;
54177;SDS011;40085;53.004;6.770;2022-07-23T14:14:33;1.23;;;0.40;;
54177;SDS011;40085;53.004;6.770;2022-07-23T14:16:59;1.13;;;0.60;;
54177;SDS011;40085;53.004;6.770;2022-07-23T14:19:24;0.90;;;0.45;;
54177;SDS011;40085;53.004;6.770;2022-07-23T14:21:50;1.05;;;0.60;;
54177;SDS011;40085;53.004;6.770;2022-07-23T14:24:16;1.17;;;0.60;;
54177;SDS011;40085;53.004;6.770;2022-07-23T14:26:42;1.23;;;0.73;;
54177;SDS011;40085;53.004;6.770;2022-07-23T14:29:08;0.93;;;0.55;;
54177;SDS011;40085;53.004;6.770;2022-07-23T14:31:34;0.60;;;0.35;;
54177;SDS011;40085;53.004;6.770;2022-07-23T14:34:00;0.38;;;0.38;;
54177;SDS011;40085;53.004;6.770;2022-07-23T14:36:26;0.68;;;0.52;;
54177;SDS011;40085;53.004;6.770;2022-07-23T14:38:52;0.50;;;0.40;;
54177;SDS011;40085;53.004;6.770;2022-07-23T14:41:18;0.63;;;0.47;;
54177;SDS011;40085;53.004;6.770;2022-07-23T14:43:43;4.35;;;0.65;;
54177;SDS011;40085;53.004;6.770;2022-07-23T14:46:10;2.55;;;0.45;;
54177;SDS011;40085;53.004;6.770;2022-07-23T14:48:37;0.85;;;0.60;;
54177;SDS011;40085;53.004;6.770;2022-07-23T14:51:03;1.00;;;0.70;;
54177;SDS011;40085;53.004;6.770;2022-07-23T14:53:32;0.50;;;0.50;;
54177;SDS011;40085;53.004;6.770;2022-07-23T14:55:58;0.85;;;0.50;;
54177;SDS011;40085;53.004;6.770;2022-07-23T14:58:24;1.10;;;0.63;;
54177;SDS011;40085;53.004;6.770;2022-07-23T15:00:51;0.80;;;0.30;;
54177;SDS011;40085;53.004;6.770;2022-07-23T15:03:17;0.90;;;0.60;;
54177;SDS011;40085;53.004;6.770;2022-07-23T15:05:43;1.17;;;0.50;;
54177;SDS011;40085;53.004;6.770;2022-07-23T15:08:08;0.98;;;0.68;;
54177;SDS011;40085;53.004;6.770;2022-07-23T15:10:34;0.90;;;0.55;;
54177;SDS011;40085;53.004;6.770;2022-07-23T15:13:00;1.23;;;0.70;;
54177;SDS011;40085;53.004;6.770;2022-07-23T15:15:29;0.50;;;0.40;;
54177;SDS011;40085;53.004;6.770;2022-07-23T15:17:55;2.67;;;0.70;;
54177;SDS011;40085;53.004;6.770;2022-07-23T15:20:21;0.85;;;0.57;;
54177;SDS011;40085;53.004;6.770;2022-07-23T15:22:47;2.17;;;0.60;;
54177;SDS011;40085;53.004;6.770;2022-07-23T15:25:13;1.25;;;0.60;;
54177;SDS011;40085;53.004;6.770;2022-07-23T15:27:39;0.95;;;0.70;;
54177;SDS011;40085;53.004;6.770;2022-07-23T15:30:05;1.10;;;0.80;;
54177;SDS011;40085;53.004;6.770;2022-07-23T15:32:31;1.00;;;0.40;;
54177;SDS011;40085;53.004;6.770;2022-07-23T15:34:57;1.00;;;0.60;;